Řízení letového provozu České republiky
Letiste: LKVO Aktualizace: 27.03.2017 12:11:05  UTC
 METAR LKVO 27.03. 12:00 ...
METAR LKVO 271200Z VRB04KT CAVOK 13/M01 Q1026=